createdAt,value
2017-07-29T00:02:18.360Z,83.24
2017-07-29T00:04:45.969Z,83.41
2017-07-29T00:07:13.551Z,83.14
2017-07-29T00:09:41.183Z,83.21
2017-07-29T00:12:08.807Z,83.37
2017-07-29T00:14:36.454Z,83.38
2017-07-29T00:17:04.058Z,83.45
2017-07-29T00:19:31.708Z,83.23
2017-07-29T00:21:59.296Z,83.35
2017-07-29T00:24:26.940Z,83.43
2017-07-29T00:26:54.528Z,83.63
2017-07-29T00:29:22.157Z,83.42
2017-07-29T00:31:49.774Z,83.46
2017-07-29T00:34:17.493Z,83.53
2017-07-29T00:36:45.102Z,83.62
2017-07-29T00:39:12.760Z,83.64
2017-07-29T00:41:40.359Z,83.63
2017-07-29T00:44:07.984Z,83.65
2017-07-29T00:46:35.611Z,83.62
2017-07-29T00:49:03.267Z,83.75
2017-07-29T00:51:30.871Z,83.96
2017-07-29T00:53:58.494Z,83.94
2017-07-29T00:56:26.085Z,84.24
2017-07-29T00:58:53.885Z,84.04
2017-07-29T01:01:21.560Z,84.20
2017-07-29T01:03:49.133Z,84.31
2017-07-29T01:06:16.748Z,84.32
2017-07-29T01:08:44.365Z,84.21
2017-07-29T01:11:11.990Z,84.13
2017-07-29T01:13:39.731Z,84.03
2017-07-29T01:16:07.340Z,84.03
2017-07-29T01:18:34.953Z,84.19
2017-07-29T01:21:02.744Z,84.13
2017-07-29T01:23:30.344Z,84.04
2017-07-29T01:25:57.970Z,84.06
2017-07-29T01:28:25.591Z,83.99
2017-07-29T01:30:53.228Z,83.85
2017-07-29T01:33:20.826Z,84.00
2017-07-29T01:35:48.438Z,84.18
2017-07-29T01:38:16.042Z,84.21
2017-07-29T01:40:43.651Z,83.80
2017-07-29T01:43:11.249Z,83.99
2017-07-29T01:45:39.006Z,84.24
2017-07-29T01:48:06.606Z,84.24
2017-07-29T01:50:34.248Z,84.44
2017-07-29T01:53:01.851Z,84.71
2017-07-29T01:55:29.470Z,84.91
2017-07-29T01:57:57.067Z,84.96
2017-07-29T02:00:24.836Z,85.16
2017-07-29T02:02:52.427Z,85.28
2017-07-29T02:05:20.045Z,85.14
2017-07-29T02:07:47.641Z,85.12
2017-07-29T02:10:15.292Z,85.15
2017-07-29T02:12:42.913Z,85.19
2017-07-29T02:15:10.519Z,85.13
2017-07-29T02:17:38.182Z,85.12
2017-07-29T02:20:05.796Z,85.17
2017-07-29T02:22:33.400Z,85.22
2017-07-29T02:25:01.002Z,85.09
2017-07-29T02:27:28.773Z,85.05
2017-07-29T02:29:56.607Z,85.02
2017-07-29T02:32:24.236Z,85.07
2017-07-29T02:34:51.852Z,84.92
2017-07-29T02:37:19.623Z,84.96
2017-07-29T02:39:48.050Z,85.09
2017-07-29T02:42:15.661Z,85.08
2017-07-29T02:44:43.267Z,85.02
2017-07-29T02:47:10.884Z,85.04
2017-07-29T02:49:38.480Z,84.92
2017-07-29T02:52:06.124Z,84.80
2017-07-29T02:54:33.709Z,84.77
2017-07-29T02:57:01.319Z,84.81
2017-07-29T02:59:28.912Z,84.84
2017-07-29T03:01:56.539Z,84.59
2017-07-29T03:04:24.138Z,84.43
2017-07-29T03:06:51.837Z,84.54
2017-07-29T03:09:19.423Z,84.59
2017-07-29T03:11:47.108Z,84.42
2017-07-29T03:14:14.700Z,84.27
2017-07-29T03:16:42.386Z,84.33
2017-07-29T03:19:10.000Z,84.31
2017-07-29T03:21:37.714Z,84.33
2017-07-29T03:24:05.433Z,84.36
2017-07-29T03:26:33.039Z,84.42
2017-07-29T03:29:00.652Z,84.59
2017-07-29T03:31:28.274Z,84.60
2017-07-29T03:33:55.878Z,84.72
2017-07-29T03:36:23.496Z,84.87
2017-07-29T03:38:51.101Z,84.86
2017-07-29T03:41:18.722Z,85.01
2017-07-29T03:43:46.313Z,85.20
2017-07-29T03:46:13.954Z,85.33
2017-07-29T03:48:41.555Z,85.39
2017-07-29T03:51:09.183Z,85.37
2017-07-29T03:53:36.771Z,85.43
2017-07-29T03:56:04.712Z,85.57
2017-07-29T03:58:32.308Z,85.62
2017-07-29T04:00:59.917Z,85.71
2017-07-29T04:03:27.524Z,85.64
2017-07-29T04:05:55.132Z,85.59
2017-07-29T04:08:22.763Z,85.74
2017-07-29T04:10:50.484Z,85.89
2017-07-29T04:13:18.103Z,86.02
2017-07-29T04:15:45.700Z,86.21
2017-07-29T04:18:13.504Z,86.34
2017-07-29T04:20:41.081Z,86.34
2017-07-29T04:23:08.691Z,86.27
2017-07-29T04:25:36.281Z,86.23
2017-07-29T04:28:03.885Z,86.12
2017-07-29T04:30:31.468Z,86.05
2017-07-29T04:32:59.108Z,86.07
2017-07-29T04:35:26.691Z,86.05
2017-07-29T04:37:54.305Z,86.05
2017-07-29T04:40:21.907Z,85.90
2017-07-29T04:42:49.546Z,86.01
2017-07-29T04:45:17.152Z,86.04
2017-07-29T04:47:44.786Z,85.91
2017-07-29T04:50:12.378Z,85.92
2017-07-29T04:52:40.012Z,85.86
2017-07-29T04:55:07.614Z,85.76
2017-07-29T04:57:35.240Z,85.71
2017-07-29T05:00:02.855Z,85.62
2017-07-29T05:02:30.486Z,85.59
2017-07-29T05:04:58.090Z,85.24
2017-07-29T05:07:25.724Z,85.22
2017-07-29T05:09:53.321Z,84.97
2017-07-29T05:12:20.943Z,84.93
2017-07-29T05:14:48.554Z,84.51
2017-07-29T05:17:16.185Z,84.07
2017-07-29T05:19:43.806Z,84.37
2017-07-29T05:22:11.423Z,84.17
2017-07-29T05:24:39.108Z,83.66
2017-07-29T05:27:06.713Z,83.83
2017-07-29T05:29:34.298Z,83.48
2017-07-29T05:32:01.900Z,83.26
2017-07-29T05:34:29.533Z,83.21
2017-07-29T05:36:57.112Z,82.90
2017-07-29T05:39:24.739Z,82.54
2017-07-29T05:41:52.324Z,82.64
2017-07-29T05:44:20.076Z,82.77
2017-07-29T05:46:47.667Z,82.98
2017-07-29T05:49:15.295Z,82.78
2017-07-29T05:51:43.005Z,82.73
2017-07-29T05:54:10.635Z,82.96
2017-07-29T05:56:38.228Z,83.16
2017-07-29T05:59:05.835Z,83.31
2017-07-29T06:01:33.453Z,82.87
2017-07-29T06:04:01.064Z,82.86
2017-07-29T06:06:28.669Z,82.57
2017-07-29T06:08:56.309Z,82.77
2017-07-29T06:11:23.914Z,82.50
2017-07-29T06:13:51.528Z,82.51
2017-07-29T06:16:19.101Z,81.76
2017-07-29T06:18:46.834Z,81.34
2017-07-29T06:21:14.427Z,81.64
2017-07-29T06:23:42.040Z,81.27
2017-07-29T06:26:09.633Z,81.11
2017-07-29T06:28:37.498Z,81.13
2017-07-29T06:31:05.101Z,80.81
2017-07-29T06:33:32.784Z,81.11
2017-07-29T06:36:00.382Z,81.00
2017-07-29T06:38:27.999Z,80.98
2017-07-29T06:40:55.595Z,80.64
2017-07-29T06:43:23.202Z,80.40
2017-07-29T06:45:50.810Z,80.46
2017-07-29T06:48:18.418Z,79.65
2017-07-29T06:50:46.011Z,80.04
2017-07-29T06:53:13.653Z,79.76
2017-07-29T06:55:41.262Z,79.79
2017-07-29T06:58:08.863Z,80.47
2017-07-29T07:00:36.545Z,80.05
2017-07-29T07:03:04.448Z,80.05
2017-07-29T07:05:32.070Z,80.00
2017-07-29T07:07:59.757Z,79.96
2017-07-29T07:13:01.371Z,79.19
2017-07-29T07:15:29.098Z,78.17
2017-07-29T07:17:56.709Z,78.83
2017-07-29T07:20:24.333Z,77.47
2017-07-29T07:22:51.934Z,76.71
2017-07-29T07:25:20.006Z,76.98
2017-07-29T07:27:47.721Z,76.44
2017-07-29T07:30:15.351Z,75.71
2017-07-29T07:32:42.947Z,76.09
2017-07-29T07:35:10.701Z,75.64
2017-07-29T07:37:38.338Z,73.96
2017-07-29T07:40:06.111Z,75.03
2017-07-29T07:42:33.755Z,74.40
2017-07-29T07:45:01.377Z,75.08
2017-07-29T07:47:28.987Z,73.95
2017-07-29T07:49:56.616Z,73.94
2017-07-29T07:52:24.216Z,72.89
2017-07-29T07:54:51.851Z,72.00
2017-07-29T07:57:19.447Z,71.23
2017-07-29T07:59:47.043Z,70.81
2017-07-29T08:02:14.619Z,70.18
2017-07-29T08:04:42.210Z,70.11
2017-07-29T08:07:09.921Z,68.05
2017-07-29T08:09:37.538Z,68.79
2017-07-29T08:12:05.111Z,68.52
2017-07-29T08:14:32.854Z,68.54
2017-07-29T08:17:00.425Z,67.70
2017-07-29T08:19:28.011Z,66.54
2017-07-29T08:21:55.609Z,68.30
2017-07-29T08:24:23.603Z,67.92
2017-07-29T08:26:51.189Z,66.23
2017-07-29T08:29:18.757Z,67.93
2017-07-29T08:31:46.357Z,67.30
2017-07-29T08:34:13.947Z,68.11
2017-07-29T08:36:41.549Z,67.36
2017-07-29T08:39:09.133Z,67.42
2017-07-29T08:41:36.734Z,65.76
2017-07-29T08:44:04.307Z,64.10
2017-07-29T08:46:31.886Z,63.96
2017-07-29T08:48:59.496Z,63.58
2017-07-29T08:51:27.090Z,63.55
2017-07-29T08:53:54.692Z,64.36
2017-07-29T08:56:22.315Z,64.33
2017-07-29T08:58:49.891Z,63.66
2017-07-29T09:01:17.521Z,64.40
2017-07-29T09:03:45.085Z,62.14
2017-07-29T09:06:12.676Z,63.69
2017-07-29T09:08:40.253Z,62.88
2017-07-29T09:11:07.885Z,62.04
2017-07-29T09:13:35.459Z,63.54
2017-07-29T09:16:03.054Z,61.50
2017-07-29T09:18:30.670Z,62.33
2017-07-29T09:20:58.287Z,61.61
2017-07-29T09:23:25.866Z,62.69
2017-07-29T09:25:53.470Z,62.45
2017-07-29T09:28:21.053Z,61.85
2017-07-29T09:30:48.645Z,63.57
2017-07-29T09:33:16.221Z,60.48
2017-07-29T09:35:43.835Z,60.98
2017-07-29T09:38:11.412Z,60.96
2017-07-29T09:40:39.022Z,60.72
2017-07-29T09:43:06.596Z,60.19
2017-07-29T09:45:34.209Z,59.88
2017-07-29T09:48:01.874Z,59.91
2017-07-29T09:50:29.464Z,59.24
2017-07-29T09:52:57.454Z,55.44
2017-07-29T09:55:25.027Z,56.34
2017-07-29T09:57:52.616Z,57.32
2017-07-29T10:00:20.287Z,57.33
2017-07-29T10:02:47.899Z,54.44
2017-07-29T10:05:15.480Z,54.87
2017-07-29T10:07:43.088Z,54.80
2017-07-29T10:10:10.706Z,54.28
2017-07-29T10:12:38.309Z,56.12
2017-07-29T10:15:05.921Z,56.05
2017-07-29T10:17:33.526Z,55.31
2017-07-29T10:20:01.210Z,59.04
2017-07-29T10:22:28.817Z,53.82
2017-07-29T10:24:56.429Z,57.26
2017-07-29T10:27:24.062Z,57.29
2017-07-29T10:29:51.638Z,55.54
2017-07-29T10:32:19.229Z,54.71
2017-07-29T10:34:46.822Z,54.86
2017-07-29T10:37:14.427Z,54.78
2017-07-29T10:39:42.130Z,54.32
2017-07-29T10:42:09.728Z,55.86
2017-07-29T10:44:37.321Z,56.39
2017-07-29T10:47:05.157Z,54.25
2017-07-29T10:49:32.754Z,55.87
2017-07-29T10:52:00.354Z,56.98
2017-07-29T10:54:27.925Z,56.45
2017-07-29T10:56:55.523Z,54.50
2017-07-29T10:59:23.102Z,54.88
2017-07-29T11:01:50.718Z,55.42
2017-07-29T11:04:18.314Z,55.22
2017-07-29T11:06:45.894Z,55.97
2017-07-29T11:09:13.551Z,55.65
2017-07-29T11:11:41.187Z,55.53
2017-07-29T11:14:08.833Z,53.08
2017-07-29T11:16:36.475Z,55.21
2017-07-29T11:19:04.055Z,54.65
2017-07-29T11:21:31.655Z,55.09
2017-07-29T11:23:59.267Z,54.12
2017-07-29T11:26:26.876Z,54.13
2017-07-29T11:28:54.462Z,53.29
2017-07-29T11:31:22.032Z,55.08
2017-07-29T11:33:49.639Z,55.83
2017-07-29T11:36:17.248Z,57.52
2017-07-29T11:38:44.865Z,57.14
2017-07-29T11:41:12.454Z,54.53
2017-07-29T11:43:40.053Z,56.26
2017-07-29T11:46:07.658Z,55.66
2017-07-29T11:48:35.258Z,56.20
2017-07-29T11:51:02.842Z,55.22
2017-07-29T11:53:30.535Z,55.00
2017-07-29T11:55:58.135Z,53.72
2017-07-29T11:58:25.750Z,53.89
2017-07-29T12:00:53.356Z,53.85
2017-07-29T12:03:20.958Z,52.38
2017-07-29T12:05:48.540Z,54.02
2017-07-29T12:08:16.145Z,52.70
2017-07-29T12:10:43.731Z,51.28
2017-07-29T12:13:11.360Z,52.10
2017-07-29T12:15:38.940Z,52.26
2017-07-29T12:18:06.812Z,54.37
2017-07-29T12:20:34.406Z,53.16
2017-07-29T12:23:01.998Z,52.29
2017-07-29T12:25:29.571Z,51.93
2017-07-29T12:27:57.197Z,52.47
2017-07-29T12:30:24.786Z,53.15
2017-07-29T12:32:52.408Z,51.80
2017-07-29T12:35:19.989Z,53.52
2017-07-29T12:37:47.862Z,51.72
2017-07-29T12:40:15.441Z,52.24
2017-07-29T12:42:43.032Z,54.33
2017-07-29T12:45:10.650Z,53.27
2017-07-29T12:47:38.263Z,52.79
2017-07-29T12:50:05.880Z,53.05
2017-07-29T12:52:33.474Z,52.11
2017-07-29T12:55:01.080Z,52.68
2017-07-29T12:57:28.736Z,49.37
2017-07-29T12:59:56.400Z,52.28
2017-07-29T13:02:23.981Z,54.30
2017-07-29T13:04:51.599Z,52.27
2017-07-29T13:07:19.322Z,53.71
2017-07-29T13:09:46.958Z,52.86
2017-07-29T13:12:14.545Z,52.78
2017-07-29T13:14:42.159Z,53.95
2017-07-29T13:17:09.749Z,52.37
2017-07-29T13:19:37.377Z,48.11
2017-07-29T13:22:05.048Z,51.21
2017-07-29T13:24:32.679Z,50.51
2017-07-29T13:27:00.249Z,49.80
2017-07-29T13:29:27.877Z,52.50
2017-07-29T13:31:55.527Z,50.76
2017-07-29T13:34:23.177Z,52.73
2017-07-29T13:36:50.749Z,52.33
2017-07-29T13:39:18.670Z,49.45
2017-07-29T13:41:46.266Z,49.20
2017-07-29T13:44:13.855Z,51.41
2017-07-29T13:46:41.827Z,48.42
2017-07-29T13:49:09.411Z,49.74
2017-07-29T13:51:37.006Z,50.73
2017-07-29T13:54:04.610Z,51.27
2017-07-29T13:56:32.215Z,49.95
2017-07-29T13:58:59.828Z,50.74
2017-07-29T14:01:27.452Z,48.07
2017-07-29T14:03:55.057Z,51.85
2017-07-29T14:06:22.663Z,49.90
2017-07-29T14:08:50.270Z,50.05
2017-07-29T14:11:17.861Z,45.61
2017-07-29T14:13:45.435Z,45.94
2017-07-29T14:16:13.390Z,47.51
2017-07-29T14:18:40.977Z,47.20
2017-07-29T14:21:08.614Z,45.27
2017-07-29T14:23:36.254Z,45.36
2017-07-29T14:26:03.835Z,45.12
2017-07-29T14:28:31.507Z,41.68
2017-07-29T14:30:59.075Z,38.73
2017-07-29T14:33:27.011Z,43.01
2017-07-29T14:35:54.648Z,39.90
2017-07-29T14:38:22.257Z,39.06
2017-07-29T14:40:49.865Z,38.47
2017-07-29T14:43:17.456Z,38.83
2017-07-29T14:45:45.062Z,38.55
2017-07-29T14:48:30.249Z,38.74
2017-07-29T14:50:58.157Z,38.83
2017-07-29T14:53:25.737Z,41.08
2017-07-29T14:55:53.334Z,41.04
2017-07-29T14:58:20.937Z,40.80
2017-07-29T15:00:48.529Z,42.80
2017-07-29T15:03:16.164Z,41.24
2017-07-29T15:05:43.749Z,43.17
2017-07-29T15:08:11.624Z,42.19
2017-07-29T15:10:39.227Z,44.43
2017-07-29T15:13:06.803Z,43.11
2017-07-29T15:15:34.413Z,43.29
2017-07-29T15:18:02.015Z,42.82
2017-07-29T15:20:29.624Z,42.81
2017-07-29T15:22:57.226Z,42.70
2017-07-29T15:25:24.845Z,41.48
2017-07-29T15:27:52.421Z,40.40
2017-07-29T15:30:20.022Z,39.92
2017-07-29T15:32:47.763Z,39.35
2017-07-29T15:35:15.688Z,38.04
2017-07-29T15:37:43.263Z,40.12
2017-07-29T15:40:10.853Z,40.31
2017-07-29T15:42:38.495Z,39.63
2017-07-29T15:45:06.588Z,37.82
2017-07-29T15:47:34.570Z,39.43
2017-07-29T15:50:02.834Z,38.12
2017-07-29T15:52:30.557Z,38.28
2017-07-29T15:54:58.183Z,38.44
2017-07-29T15:57:25.769Z,41.37
2017-07-29T15:59:53.496Z,42.86
2017-07-29T16:02:21.064Z,40.24
2017-07-29T16:04:48.693Z,41.31
2017-07-29T16:07:16.257Z,43.00
2017-07-29T16:09:44.273Z,42.79
2017-07-29T16:12:11.853Z,43.17
2017-07-29T16:14:39.459Z,43.48
2017-07-29T16:17:07.059Z,43.93
2017-07-29T16:19:34.637Z,45.36
2017-07-29T16:22:02.249Z,44.42
2017-07-29T16:24:29.836Z,45.21
2017-07-29T16:26:57.800Z,46.31
2017-07-29T16:29:25.380Z,46.27
2017-07-29T16:31:52.973Z,46.72
2017-07-29T16:34:20.574Z,47.73
2017-07-29T16:36:48.156Z,47.36
2017-07-29T16:39:15.755Z,47.05
2017-07-29T16:41:43.343Z,48.45
2017-07-29T16:44:11.325Z,48.14
2017-07-29T16:46:38.885Z,48.27
2017-07-29T16:49:06.478Z,49.01
2017-07-29T16:51:34.079Z,49.61
2017-07-29T16:54:01.694Z,49.66
2017-07-29T16:56:29.291Z,49.47
2017-07-29T16:58:56.874Z,49.74
2017-07-29T17:01:25.550Z,48.84
2017-07-29T17:03:53.118Z,48.97
2017-07-29T17:06:21.245Z,48.83
2017-07-29T17:08:48.820Z,48.57
2017-07-29T17:11:16.423Z,49.84
2017-07-29T17:13:44.146Z,50.02
2017-07-29T17:16:11.732Z,53.57
2017-07-29T17:18:39.322Z,53.37
2017-07-29T17:21:06.903Z,52.34
2017-07-29T17:23:34.851Z,52.20
2017-07-29T17:26:02.491Z,51.95
2017-07-29T17:28:30.072Z,53.26
2017-07-29T17:30:57.665Z,52.43
2017-07-29T17:33:25.275Z,54.41
2017-07-29T17:35:52.885Z,54.98
2017-07-29T17:38:20.466Z,55.32
2017-07-29T17:40:48.077Z,55.42
2017-07-29T17:43:15.693Z,54.82
2017-07-29T17:45:43.306Z,55.00
2017-07-29T17:48:11.013Z,55.03
2017-07-29T17:50:38.625Z,54.65
2017-07-29T17:53:06.230Z,55.81
2017-07-29T17:55:33.829Z,54.55
2017-07-29T17:58:01.841Z,55.21
2017-07-29T18:00:29.467Z,54.90
2017-07-29T18:02:57.078Z,54.78
2017-07-29T18:05:24.938Z,55.36
2017-07-29T18:07:52.507Z,56.81
2017-07-29T18:10:20.084Z,55.22
2017-07-29T18:12:47.675Z,55.47
2017-07-29T18:15:15.576Z,55.85
2017-07-29T18:17:43.193Z,55.78
2017-07-29T18:20:10.754Z,55.99
2017-07-29T18:22:38.337Z,56.08
2017-07-29T18:25:05.922Z,56.24
2017-07-29T18:27:33.533Z,56.39
2017-07-29T18:30:01.113Z,56.54
2017-07-29T18:32:28.861Z,57.32
2017-07-29T18:34:57.331Z,56.80
2017-07-29T18:37:25.358Z,57.24
2017-07-29T18:39:53.080Z,57.50
2017-07-29T18:42:20.831Z,58.50
2017-07-29T18:44:48.489Z,58.22
2017-07-29T18:47:16.826Z,58.42
2017-07-29T18:49:45.502Z,58.62
2017-07-29T18:52:13.111Z,58.45
2017-07-29T18:54:40.688Z,58.61
2017-07-29T18:57:08.324Z,58.68
2017-07-29T18:59:35.913Z,58.70
2017-07-29T19:02:03.610Z,58.85
2017-07-29T19:04:31.184Z,58.94
2017-07-29T19:06:59.141Z,59.17
2017-07-29T19:09:26.743Z,59.46
2017-07-29T19:11:54.405Z,59.68
2017-07-29T19:14:22.027Z,59.96
2017-07-29T19:16:49.617Z,60.26
2017-07-29T19:19:17.212Z,60.75
2017-07-29T19:21:44.832Z,61.01
2017-07-29T19:24:12.435Z,61.13
2017-07-29T19:26:40.025Z,61.52
2017-07-29T19:29:07.984Z,61.74
2017-07-29T19:31:35.555Z,62.09
2017-07-29T19:35:21.839Z,62.48
2017-07-29T19:37:49.449Z,62.75
2017-07-29T19:40:17.035Z,62.89
2017-07-29T19:42:45.480Z,63.44
2017-07-29T19:45:13.207Z,63.43
2017-07-29T19:47:40.829Z,63.83
2017-07-29T19:50:08.524Z,63.93
2017-07-29T19:52:36.473Z,64.00
2017-07-29T19:55:04.067Z,64.16
2017-07-29T19:57:31.662Z,64.40
2017-07-29T19:59:59.309Z,64.64
2017-07-29T20:02:27.017Z,64.91
2017-07-29T20:04:54.661Z,66.09
2017-07-29T20:07:22.290Z,67.26
2017-07-29T20:09:49.924Z,67.73
2017-07-29T20:12:17.518Z,68.14
2017-07-29T20:14:45.435Z,68.41
2017-07-29T20:17:13.043Z,69.49
2017-07-29T20:19:40.634Z,70.34
2017-07-29T20:22:08.370Z,70.44
2017-07-29T20:24:35.977Z,70.57
2017-07-29T20:28:51.343Z,70.62
2017-07-29T20:31:19.071Z,70.95
2017-07-29T20:33:46.673Z,71.63
2017-07-29T20:36:14.692Z,71.71
2017-07-29T20:38:42.471Z,72.94
2017-07-29T20:41:10.054Z,72.76
2017-07-29T20:43:37.631Z,72.90
2017-07-29T20:46:05.264Z,73.70
2017-07-29T20:48:33.021Z,73.66
2017-07-29T20:51:00.589Z,74.18
2017-07-29T20:53:28.527Z,74.67
2017-07-29T20:55:56.165Z,74.43
2017-07-29T20:58:23.764Z,75.18
2017-07-29T21:00:51.371Z,74.91
2017-07-29T21:03:19.039Z,75.26
2017-07-29T21:05:47.063Z,75.12
2017-07-29T21:08:14.661Z,75.43
2017-07-29T21:10:42.331Z,75.84
2017-07-29T21:13:09.938Z,76.23
2017-07-29T21:15:37.927Z,76.63
2017-07-29T21:18:05.531Z,76.71
2017-07-29T21:20:33.194Z,77.09
2017-07-29T21:23:00.834Z,76.81
2017-07-29T21:25:28.517Z,76.98
2017-07-29T21:27:56.136Z,76.89
2017-07-29T21:30:23.769Z,76.88
2017-07-29T21:32:51.724Z,77.04
2017-07-29T21:35:19.319Z,76.83
2017-07-29T22:38:18.540Z,79.62
2017-07-29T22:40:46.151Z,79.16
2017-07-29T22:43:14.083Z,78.83
2017-07-29T22:45:42.187Z,78.21
2017-07-29T22:48:09.761Z,78.14
2017-07-29T22:50:37.361Z,77.98
2017-07-29T22:53:05.623Z,77.83
2017-07-29T22:55:33.234Z,77.78
2017-07-29T22:58:00.864Z,77.69
2017-07-29T23:00:28.466Z,78.32
2017-07-29T23:02:56.395Z,78.14
2017-07-29T23:05:23.970Z,78.32
2017-07-29T23:07:51.581Z,78.87
2017-07-29T23:10:19.198Z,79.22
2017-07-29T23:12:46.815Z,79.30
2017-07-29T23:15:14.405Z,79.53
2017-07-29T23:17:42.138Z,79.47
2017-07-29T23:20:09.794Z,79.86
2017-07-29T23:22:37.416Z,80.03
2017-07-29T23:25:05.105Z,80.17
2017-07-29T23:27:32.732Z,80.21
2017-07-29T23:30:00.637Z,80.28
2017-07-29T23:32:28.219Z,80.24
2017-07-29T23:34:55.820Z,80.47
2017-07-29T23:37:23.431Z,80.28
2017-07-29T23:39:51.043Z,79.88
2017-07-29T23:42:19.093Z,80.33
2017-07-29T23:44:46.887Z,80.26
2017-07-29T23:47:14.519Z,79.72
2017-07-29T23:49:42.099Z,79.86
2017-07-29T23:52:10.029Z,79.99
2017-07-29T23:54:37.628Z,80.74
2017-07-29T23:57:05.220Z,80.61
2017-07-29T23:59:32.834Z,80.61
